sensor_id;sensor_type;location;lat;lon;timestamp;P1;durP1;ratioP1;P2;durP2;ratioP2
39032;SDS011;24794;51.982;5.878;2022-12-22T00:01:11;17.42;;;12.25;;
39032;SDS011;24794;51.982;5.878;2022-12-22T00:03:50;16.65;;;12.10;;
39032;SDS011;24794;51.982;5.878;2022-12-22T00:05:19;15.88;;;12.25;;
39032;SDS011;24794;51.982;5.878;2022-12-22T00:06:39;11.90;;;10.38;;
39032;SDS011;24794;51.982;5.878;2022-12-22T00:07:58;11.00;;;9.77;;
39032;SDS011;24794;51.982;5.878;2022-12-22T00:09:17;14.93;;;11.40;;
39032;SDS011;24794;51.982;5.878;2022-12-22T00:10:36;13.82;;;10.80;;
39032;SDS011;24794;51.982;5.878;2022-12-22T00:11:55;14.13;;;12.38;;
39032;SDS011;24794;51.982;5.878;2022-12-22T00:13:14;15.93;;;13.05;;
39032;SDS011;24794;51.982;5.878;2022-12-22T00:14:34;19.77;;;13.43;;
39032;SDS011;24794;51.982;5.878;2022-12-22T00:15:53;19.65;;;14.63;;
39032;SDS011;24794;51.982;5.878;2022-12-22T00:17:16;14.20;;;12.13;;
39032;SDS011;24794;51.982;5.878;2022-12-22T00:18:42;15.73;;;12.98;;
39032;SDS011;24794;51.982;5.878;2022-12-22T00:20:04;15.15;;;12.02;;
39032;SDS011;24794;51.982;5.878;2022-12-22T00:21:29;16.85;;;13.20;;
39032;SDS011;24794;51.982;5.878;2022-12-22T00:22:48;15.48;;;12.65;;
39032;SDS011;24794;51.982;5.878;2022-12-22T00:24:07;13.07;;;10.43;;
39032;SDS011;24794;51.982;5.878;2022-12-22T00:25:26;16.45;;;13.13;;
39032;SDS011;24794;51.982;5.878;2022-12-22T00:26:46;15.07;;;11.23;;
39032;SDS011;24794;51.982;5.878;2022-12-22T00:28:10;15.53;;;12.80;;
39032;SDS011;24794;51.982;5.878;2022-12-22T00:29:39;14.98;;;12.13;;
39032;SDS011;24794;51.982;5.878;2022-12-22T00:31:00;15.30;;;13.13;;
39032;SDS011;24794;51.982;5.878;2022-12-22T00:32:20;16.23;;;12.98;;
39032;SDS011;24794;51.982;5.878;2022-12-22T00:33:40;13.25;;;10.85;;
39032;SDS011;24794;51.982;5.878;2022-12-22T00:34:59;15.38;;;11.50;;
39032;SDS011;24794;51.982;5.878;2022-12-22T00:36:19;19.42;;;14.07;;
39032;SDS011;24794;51.982;5.878;2022-12-22T00:37:41;15.90;;;12.27;;
39032;SDS011;24794;51.982;5.878;2022-12-22T00:39:00;14.70;;;10.90;;
39032;SDS011;24794;51.982;5.878;2022-12-22T00:40:21;12.88;;;10.57;;
39032;SDS011;24794;51.982;5.878;2022-12-22T00:41:44;14.30;;;11.10;;
39032;SDS011;24794;51.982;5.878;2022-12-22T00:43:03;14.70;;;10.90;;
39032;SDS011;24794;51.982;5.878;2022-12-22T00:44:22;14.27;;;11.73;;
39032;SDS011;24794;51.982;5.878;2022-12-22T00:45:41;12.70;;;10.60;;
39032;SDS011;24794;51.982;5.878;2022-12-22T00:47:01;12.55;;;10.63;;
39032;SDS011;24794;51.982;5.878;2022-12-22T00:48:21;12.55;;;10.32;;
39032;SDS011;24794;51.982;5.878;2022-12-22T00:49:44;12.68;;;9.57;;
39032;SDS011;24794;51.982;5.878;2022-12-22T00:51:05;11.32;;;9.25;;
39032;SDS011;24794;51.982;5.878;2022-12-22T00:52:25;9.95;;;8.55;;
39032;SDS011;24794;51.982;5.878;2022-12-22T00:53:44;9.98;;;8.07;;
39032;SDS011;24794;51.982;5.878;2022-12-22T00:55:11;8.85;;;7.65;;
39032;SDS011;24794;51.982;5.878;2022-12-22T00:56:32;8.50;;;7.38;;
39032;SDS011;24794;51.982;5.878;2022-12-22T00:57:51;9.10;;;7.72;;
39032;SDS011;24794;51.982;5.878;2022-12-22T00:59:10;9.55;;;7.25;;
39032;SDS011;24794;51.982;5.878;2022-12-22T01:00:29;10.38;;;7.57;;
39032;SDS011;24794;51.982;5.878;2022-12-22T01:01:48;10.40;;;8.00;;
39032;SDS011;24794;51.982;5.878;2022-12-22T01:03:07;8.10;;;7.25;;
39032;SDS011;24794;51.982;5.878;2022-12-22T01:04:28;8.02;;;6.93;;
39032;SDS011;24794;51.982;5.878;2022-12-22T01:05:48;7.50;;;6.65;;
39032;SDS011;24794;51.982;5.878;2022-12-22T01:07:10;9.25;;;7.70;;
39032;SDS011;24794;51.982;5.878;2022-12-22T01:08:32;9.27;;;7.47;;
39032;SDS011;24794;51.982;5.878;2022-12-22T01:09:54;8.00;;;7.20;;
39032;SDS011;24794;51.982;5.878;2022-12-22T01:11:14;7.50;;;6.68;;
39032;SDS011;24794;51.982;5.878;2022-12-22T01:12:33;7.70;;;6.50;;
39032;SDS011;24794;51.982;5.878;2022-12-22T01:13:54;8.63;;;6.95;;
39032;SDS011;24794;51.982;5.878;2022-12-22T01:15:15;8.30;;;7.22;;
39032;SDS011;24794;51.982;5.878;2022-12-22T01:16:36;8.65;;;6.50;;
39032;SDS011;24794;51.982;5.878;2022-12-22T01:17:55;9.43;;;7.97;;
39032;SDS011;24794;51.982;5.878;2022-12-22T01:19:14;9.57;;;7.13;;
39032;SDS011;24794;51.982;5.878;2022-12-22T01:20:33;7.60;;;6.82;;
39032;SDS011;24794;51.982;5.878;2022-12-22T01:21:52;9.02;;;6.40;;
39032;SDS011;24794;51.982;5.878;2022-12-22T01:23:11;7.78;;;6.78;;
39032;SDS011;24794;51.982;5.878;2022-12-22T01:24:30;7.88;;;6.63;;
39032;SDS011;24794;51.982;5.878;2022-12-22T01:25:49;8.30;;;7.15;;
39032;SDS011;24794;51.982;5.878;2022-12-22T01:27:08;7.68;;;6.32;;
39032;SDS011;24794;51.982;5.878;2022-12-22T01:28:27;6.97;;;5.88;;
39032;SDS011;24794;51.982;5.878;2022-12-22T01:29:46;8.27;;;6.28;;
39032;SDS011;24794;51.982;5.878;2022-12-22T01:31:13;8.25;;;6.57;;
39032;SDS011;24794;51.982;5.878;2022-12-22T01:32:47;7.38;;;6.50;;
39032;SDS011;24794;51.982;5.878;2022-12-22T01:34:07;8.35;;;7.22;;
39032;SDS011;24794;51.982;5.878;2022-12-22T01:35:29;8.75;;;7.70;;
39032;SDS011;24794;51.982;5.878;2022-12-22T01:36:50;10.57;;;7.10;;
39032;SDS011;24794;51.982;5.878;2022-12-22T01:38:10;9.57;;;7.70;;
39032;SDS011;24794;51.982;5.878;2022-12-22T01:39:28;7.60;;;6.80;;
39032;SDS011;24794;51.982;5.878;2022-12-22T01:40:48;7.78;;;6.63;;
39032;SDS011;24794;51.982;5.878;2022-12-22T01:42:08;8.02;;;7.22;;
39032;SDS011;24794;51.982;5.878;2022-12-22T01:43:29;9.43;;;7.80;;
39032;SDS011;24794;51.982;5.878;2022-12-22T01:46:24;6.60;;;5.90;;
39032;SDS011;24794;51.982;5.878;2022-12-22T01:47:44;8.02;;;6.30;;
39032;SDS011;24794;51.982;5.878;2022-12-22T01:49:02;7.40;;;6.07;;
39032;SDS011;24794;51.982;5.878;2022-12-22T01:51:50;6.95;;;6.10;;
39032;SDS011;24794;51.982;5.878;2022-12-22T01:53:10;6.38;;;5.72;;
39032;SDS011;24794;51.982;5.878;2022-12-22T01:54:33;6.63;;;5.30;;
39032;SDS011;24794;51.982;5.878;2022-12-22T01:55:52;6.82;;;6.07;;
39032;SDS011;24794;51.982;5.878;2022-12-22T01:57:11;7.72;;;6.13;;
39032;SDS011;24794;51.982;5.878;2022-12-22T01:58:32;6.45;;;5.75;;
39032;SDS011;24794;51.982;5.878;2022-12-22T01:59:59;7.03;;;5.38;;
39032;SDS011;24794;51.982;5.878;2022-12-22T02:01:18;6.60;;;5.90;;
39032;SDS011;24794;51.982;5.878;2022-12-22T02:02:37;8.25;;;6.03;;
39032;SDS011;24794;51.982;5.878;2022-12-22T02:03:56;9.35;;;6.57;;
39032;SDS011;24794;51.982;5.878;2022-12-22T02:05:16;8.02;;;6.43;;
39032;SDS011;24794;51.982;5.878;2022-12-22T02:06:38;7.95;;;6.53;;
39032;SDS011;24794;51.982;5.878;2022-12-22T02:12:32;7.88;;;6.40;;
39032;SDS011;24794;51.982;5.878;2022-12-22T02:16:16;6.32;;;5.60;;
39032;SDS011;24794;51.982;5.878;2022-12-22T02:21:04;7.22;;;6.45;;
39032;SDS011;24794;51.982;5.878;2022-12-22T02:22:28;7.13;;;6.38;;
39032;SDS011;24794;51.982;5.878;2022-12-22T02:27:45;7.78;;;6.80;;
39032;SDS011;24794;51.982;5.878;2022-12-22T02:29:07;7.28;;;6.57;;
39032;SDS011;24794;51.982;5.878;2022-12-22T02:30:26;7.78;;;6.97;;
39032;SDS011;24794;51.982;5.878;2022-12-22T02:31:46;8.63;;;7.18;;
39032;SDS011;24794;51.982;5.878;2022-12-22T02:33:05;8.98;;;7.57;;
39032;SDS011;24794;51.982;5.878;2022-12-22T02:34:26;8.50;;;7.65;;
39032;SDS011;24794;51.982;5.878;2022-12-22T02:35:51;7.97;;;7.10;;
39032;SDS011;24794;51.982;5.878;2022-12-22T02:41:28;9.50;;;7.75;;
39032;SDS011;24794;51.982;5.878;2022-12-22T02:44:48;9.90;;;7.90;;
39032;SDS011;24794;51.982;5.878;2022-12-22T02:46:28;9.57;;;7.78;;
39032;SDS011;24794;51.982;5.878;2022-12-22T02:49:17;9.35;;;7.53;;
39032;SDS011;24794;51.982;5.878;2022-12-22T02:50:44;8.45;;;7.10;;
39032;SDS011;24794;51.982;5.878;2022-12-22T02:52:13;7.00;;;6.30;;
39032;SDS011;24794;51.982;5.878;2022-12-22T02:53:42;7.82;;;7.03;;
39032;SDS011;24794;51.982;5.878;2022-12-22T02:55:01;7.70;;;6.78;;
39032;SDS011;24794;51.982;5.878;2022-12-22T02:56:21;7.10;;;6.40;;
39032;SDS011;24794;51.982;5.878;2022-12-22T02:57:41;8.15;;;7.35;;
39032;SDS011;24794;51.982;5.878;2022-12-22T02:59:00;10.77;;;7.85;;
39032;SDS011;24794;51.982;5.878;2022-12-22T03:00:19;10.85;;;7.72;;
39032;SDS011;24794;51.982;5.878;2022-12-22T03:01:39;8.25;;;7.05;;
39032;SDS011;24794;51.982;5.878;2022-12-22T03:02:59;8.00;;;6.93;;
39032;SDS011;24794;51.982;5.878;2022-12-22T03:04:18;7.25;;;6.53;;
39032;SDS011;24794;51.982;5.878;2022-12-22T03:05:37;9.23;;;6.85;;
39032;SDS011;24794;51.982;5.878;2022-12-22T03:06:56;7.22;;;6.32;;
39032;SDS011;24794;51.982;5.878;2022-12-22T03:08:15;7.35;;;6.40;;
39032;SDS011;24794;51.982;5.878;2022-12-22T03:09:34;8.52;;;7.45;;
39032;SDS011;24794;51.982;5.878;2022-12-22T03:10:53;7.95;;;6.95;;
39032;SDS011;24794;51.982;5.878;2022-12-22T03:12:12;8.82;;;7.82;;
39032;SDS011;24794;51.982;5.878;2022-12-22T03:13:31;8.25;;;7.22;;
39032;SDS011;24794;51.982;5.878;2022-12-22T03:14:50;8.52;;;7.40;;
39032;SDS011;24794;51.982;5.878;2022-12-22T03:16:09;8.68;;;7.63;;
39032;SDS011;24794;51.982;5.878;2022-12-22T03:17:28;8.10;;;7.10;;
39032;SDS011;24794;51.982;5.878;2022-12-22T03:18:48;8.98;;;7.63;;
39032;SDS011;24794;51.982;5.878;2022-12-22T03:20:07;10.15;;;7.80;;
39032;SDS011;24794;51.982;5.878;2022-12-22T03:21:26;8.95;;;7.93;;
39032;SDS011;24794;51.982;5.878;2022-12-22T03:22:45;8.95;;;7.72;;
39032;SDS011;24794;51.982;5.878;2022-12-22T03:24:04;8.70;;;7.28;;
39032;SDS011;24794;51.982;5.878;2022-12-22T03:25:24;8.45;;;7.22;;
39032;SDS011;24794;51.982;5.878;2022-12-22T03:26:43;8.88;;;6.60;;
39032;SDS011;24794;51.982;5.878;2022-12-22T03:27:44;7.30;;;6.43;;
39032;SDS011;24794;51.982;5.878;2022-12-22T03:28:45;8.35;;;7.45;;
39032;SDS011;24794;51.982;5.878;2022-12-22T03:29:45;9.75;;;7.40;;
39032;SDS011;24794;51.982;5.878;2022-12-22T03:30:51;8.23;;;7.43;;
39032;SDS011;24794;51.982;5.878;2022-12-22T03:31:53;8.38;;;7.47;;
39032;SDS011;24794;51.982;5.878;2022-12-22T03:32:53;8.73;;;7.53;;
39032;SDS011;24794;51.982;5.878;2022-12-22T03:33:54;8.60;;;7.60;;
39032;SDS011;24794;51.982;5.878;2022-12-22T03:34:54;10.57;;;7.93;;
39032;SDS011;24794;51.982;5.878;2022-12-22T03:35:55;8.93;;;7.00;;
39032;SDS011;24794;51.982;5.878;2022-12-22T03:36:56;9.95;;;8.05;;
39032;SDS011;24794;51.982;5.878;2022-12-22T03:37:57;9.40;;;7.70;;
39032;SDS011;24794;51.982;5.878;2022-12-22T03:39:03;8.10;;;7.25;;
39032;SDS011;24794;51.982;5.878;2022-12-22T03:40:04;8.43;;;7.20;;
39032;SDS011;24794;51.982;5.878;2022-12-22T03:41:05;7.75;;;6.95;;
39032;SDS011;24794;51.982;5.878;2022-12-22T03:42:06;7.60;;;6.80;;
39032;SDS011;24794;51.982;5.878;2022-12-22T03:43:28;7.70;;;6.90;;
39032;SDS011;24794;51.982;5.878;2022-12-22T03:44:47;8.98;;;7.65;;
39032;SDS011;24794;51.982;5.878;2022-12-22T03:46:08;9.57;;;8.07;;
39032;SDS011;24794;51.982;5.878;2022-12-22T03:47:30;8.77;;;7.65;;
39032;SDS011;24794;51.982;5.878;2022-12-22T03:48:31;9.40;;;7.18;;
39032;SDS011;24794;51.982;5.878;2022-12-22T03:49:31;7.60;;;6.80;;
39032;SDS011;24794;51.982;5.878;2022-12-22T03:50:32;9.40;;;7.65;;
39032;SDS011;24794;51.982;5.878;2022-12-22T03:51:32;8.85;;;7.70;;
39032;SDS011;24794;51.982;5.878;2022-12-22T03:52:34;8.85;;;7.93;;
39032;SDS011;24794;51.982;5.878;2022-12-22T03:53:35;9.85;;;7.80;;
39032;SDS011;24794;51.982;5.878;2022-12-22T03:54:35;9.43;;;8.30;;
39032;SDS011;24794;51.982;5.878;2022-12-22T03:55:36;8.75;;;7.82;;
39032;SDS011;24794;51.982;5.878;2022-12-22T03:56:36;8.95;;;7.10;;
39032;SDS011;24794;51.982;5.878;2022-12-22T03:57:38;9.00;;;7.90;;
39032;SDS011;24794;51.982;5.878;2022-12-22T03:58:38;8.00;;;7.20;;
39032;SDS011;24794;51.982;5.878;2022-12-22T03:59:39;8.98;;;7.45;;
39032;SDS011;24794;51.982;5.878;2022-12-22T04:00:39;8.23;;;7.32;;
39032;SDS011;24794;51.982;5.878;2022-12-22T04:01:41;8.20;;;7.35;;
39032;SDS011;24794;51.982;5.878;2022-12-22T04:02:43;9.52;;;8.52;;
39032;SDS011;24794;51.982;5.878;2022-12-22T04:03:43;10.65;;;9.10;;
39032;SDS011;24794;51.982;5.878;2022-12-22T04:04:44;10.50;;;8.85;;
39032;SDS011;24794;51.982;5.878;2022-12-22T04:05:44;9.50;;;8.50;;
39032;SDS011;24794;51.982;5.878;2022-12-22T04:06:45;9.88;;;8.82;;
39032;SDS011;24794;51.982;5.878;2022-12-22T04:07:46;9.90;;;8.90;;
39032;SDS011;24794;51.982;5.878;2022-12-22T04:08:47;11.07;;;8.70;;
39032;SDS011;24794;51.982;5.878;2022-12-22T04:09:47;8.80;;;7.90;;
39032;SDS011;24794;51.982;5.878;2022-12-22T04:11:09;9.43;;;8.35;;
39032;SDS011;24794;51.982;5.878;2022-12-22T04:12:31;9.15;;;8.15;;
39032;SDS011;24794;51.982;5.878;2022-12-22T04:13:50;9.00;;;8.10;;
39032;SDS011;24794;51.982;5.878;2022-12-22T04:14:51;9.85;;;8.85;;
39032;SDS011;24794;51.982;5.878;2022-12-22T04:15:51;10.00;;;8.82;;
39032;SDS011;24794;51.982;5.878;2022-12-22T04:16:52;10.07;;;9.02;;
39032;SDS011;24794;51.982;5.878;2022-12-22T04:17:53;10.27;;;9.05;;
39032;SDS011;24794;51.982;5.878;2022-12-22T04:18:53;9.23;;;8.23;;
39032;SDS011;24794;51.982;5.878;2022-12-22T04:19:54;10.90;;;9.30;;
39032;SDS011;24794;51.982;5.878;2022-12-22T04:20:55;11.43;;;9.70;;
39032;SDS011;24794;51.982;5.878;2022-12-22T04:21:55;10.00;;;8.95;;
39032;SDS011;24794;51.982;5.878;2022-12-22T04:22:56;10.20;;;9.10;;
39032;SDS011;24794;51.982;5.878;2022-12-22T04:23:57;12.20;;;9.02;;
39032;SDS011;24794;51.982;5.878;2022-12-22T04:24:57;10.55;;;9.15;;
39032;SDS011;24794;51.982;5.878;2022-12-22T04:25:58;9.60;;;8.48;;
39032;SDS011;24794;51.982;5.878;2022-12-22T04:26:59;9.23;;;8.23;;
39032;SDS011;24794;51.982;5.878;2022-12-22T04:28:00;8.40;;;7.50;;
39032;SDS011;24794;51.982;5.878;2022-12-22T04:29:00;8.93;;;7.88;;
39032;SDS011;24794;51.982;5.878;2022-12-22T04:30:01;8.98;;;8.05;;
39032;SDS011;24794;51.982;5.878;2022-12-22T04:31:02;10.63;;;8.27;;
39032;SDS011;24794;51.982;5.878;2022-12-22T04:32:03;8.90;;;7.72;;
39032;SDS011;24794;51.982;5.878;2022-12-22T04:33:04;9.40;;;8.13;;
39032;SDS011;24794;51.982;5.878;2022-12-22T04:34:04;9.32;;;7.85;;
39032;SDS011;24794;51.982;5.878;2022-12-22T04:35:05;10.55;;;9.05;;
39032;SDS011;24794;51.982;5.878;2022-12-22T04:36:07;9.20;;;8.30;;
39032;SDS011;24794;51.982;5.878;2022-12-22T04:37:08;11.05;;;9.27;;
39032;SDS011;24794;51.982;5.878;2022-12-22T04:38:09;9.73;;;8.02;;
39032;SDS011;24794;51.982;5.878;2022-12-22T04:39:09;9.05;;;8.02;;
39032;SDS011;24794;51.982;5.878;2022-12-22T04:40:10;9.80;;;8.80;;
39032;SDS011;24794;51.982;5.878;2022-12-22T04:41:11;11.27;;;8.40;;
39032;SDS011;24794;51.982;5.878;2022-12-22T04:42:11;9.30;;;8.18;;
39032;SDS011;24794;51.982;5.878;2022-12-22T04:43:12;8.15;;;7.35;;
39032;SDS011;24794;51.982;5.878;2022-12-22T04:44:13;9.18;;;8.00;;
39032;SDS011;24794;51.982;5.878;2022-12-22T04:45:13;8.88;;;7.93;;
39032;SDS011;24794;51.982;5.878;2022-12-22T04:46:14;8.95;;;7.85;;
39032;SDS011;24794;51.982;5.878;2022-12-22T04:47:14;9.00;;;7.85;;
39032;SDS011;24794;51.982;5.878;2022-12-22T04:48:15;7.55;;;6.75;;
39032;SDS011;24794;51.982;5.878;2022-12-22T04:49:16;8.90;;;7.90;;
39032;SDS011;24794;51.982;5.878;2022-12-22T04:50:16;9.02;;;7.32;;
39032;SDS011;24794;51.982;5.878;2022-12-22T04:51:17;8.55;;;7.30;;
39032;SDS011;24794;51.982;5.878;2022-12-22T04:52:17;9.88;;;8.35;;
39032;SDS011;24794;51.982;5.878;2022-12-22T04:53:18;9.27;;;8.27;;
39032;SDS011;24794;51.982;5.878;2022-12-22T04:54:19;8.63;;;7.70;;
39032;SDS011;24794;51.982;5.878;2022-12-22T04:55:20;8.77;;;7.88;;
39032;SDS011;24794;51.982;5.878;2022-12-22T04:56:20;9.02;;;7.97;;
39032;SDS011;24794;51.982;5.878;2022-12-22T04:57:21;9.77;;;8.60;;
39032;SDS011;24794;51.982;5.878;2022-12-22T04:58:21;11.55;;;9.10;;
39032;SDS011;24794;51.982;5.878;2022-12-22T04:59:22;9.27;;;8.07;;
39032;SDS011;24794;51.982;5.878;2022-12-22T05:00:23;11.10;;;8.60;;
39032;SDS011;24794;51.982;5.878;2022-12-22T05:01:23;10.95;;;9.10;;
39032;SDS011;24794;51.982;5.878;2022-12-22T05:02:24;10.07;;;8.80;;
39032;SDS011;24794;51.982;5.878;2022-12-22T05:03:24;9.57;;;8.20;;
39032;SDS011;24794;51.982;5.878;2022-12-22T05:04:25;10.00;;;8.90;;
39032;SDS011;24794;51.982;5.878;2022-12-22T05:05:25;11.30;;;9.40;;
39032;SDS011;24794;51.982;5.878;2022-12-22T05:06:26;9.18;;;7.65;;
39032;SDS011;24794;51.982;5.878;2022-12-22T05:07:26;9.43;;;8.25;;
39032;SDS011;24794;51.982;5.878;2022-12-22T05:08:27;9.65;;;8.40;;
39032;SDS011;24794;51.982;5.878;2022-12-22T05:09:28;8.95;;;8.05;;
39032;SDS011;24794;51.982;5.878;2022-12-22T05:10:28;9.75;;;8.55;;
39032;SDS011;24794;51.982;5.878;2022-12-22T05:11:29;10.95;;;8.65;;
39032;SDS011;24794;51.982;5.878;2022-12-22T05:12:30;11.75;;;9.77;;
39032;SDS011;24794;51.982;5.878;2022-12-22T05:13:49;12.05;;;9.40;;
39032;SDS011;24794;51.982;5.878;2022-12-22T05:14:50;11.15;;;8.93;;
39032;SDS011;24794;51.982;5.878;2022-12-22T05:15:50;10.70;;;8.65;;
39032;SDS011;24794;51.982;5.878;2022-12-22T05:16:51;10.88;;;8.98;;
39032;SDS011;24794;51.982;5.878;2022-12-22T05:17:52;11.38;;;9.05;;
39032;SDS011;24794;51.982;5.878;2022-12-22T05:18:53;12.45;;;9.02;;
39032;SDS011;24794;51.982;5.878;2022-12-22T05:19:53;9.50;;;7.97;;
39032;SDS011;24794;51.982;5.878;2022-12-22T05:20:54;9.55;;;8.07;;
39032;SDS011;24794;51.982;5.878;2022-12-22T05:21:54;10.73;;;8.30;;
39032;SDS011;24794;51.982;5.878;2022-12-22T05:22:56;11.80;;;8.68;;
39032;SDS011;24794;51.982;5.878;2022-12-22T05:23:56;11.15;;;8.98;;
39032;SDS011;24794;51.982;5.878;2022-12-22T05:24:57;11.02;;;9.07;;
39032;SDS011;24794;51.982;5.878;2022-12-22T05:25:58;10.63;;;8.15;;
39032;SDS011;24794;51.982;5.878;2022-12-22T05:26:58;9.68;;;8.40;;
39032;SDS011;24794;51.982;5.878;2022-12-22T05:27:59;13.77;;;10.18;;
39032;SDS011;24794;51.982;5.878;2022-12-22T05:28:59;11.13;;;9.38;;
39032;SDS011;24794;51.982;5.878;2022-12-22T05:30:00;11.38;;;9.25;;
39032;SDS011;24794;51.982;5.878;2022-12-22T05:31:04;19.73;;;10.82;;
39032;SDS011;24794;51.982;5.878;2022-12-22T05:32:06;14.60;;;10.98;;
39032;SDS011;24794;51.982;5.878;2022-12-22T05:33:07;12.93;;;10.10;;
39032;SDS011;24794;51.982;5.878;2022-12-22T05:34:07;14.20;;;10.50;;
39032;SDS011;24794;51.982;5.878;2022-12-22T05:35:08;12.15;;;9.85;;
39032;SDS011;24794;51.982;5.878;2022-12-22T05:36:09;13.52;;;10.00;;
39032;SDS011;24794;51.982;5.878;2022-12-22T05:37:10;16.55;;;10.93;;
39032;SDS011;24794;51.982;5.878;2022-12-22T05:38:10;14.15;;;11.00;;
39032;SDS011;24794;51.982;5.878;2022-12-22T05:39:11;15.45;;;11.07;;
39032;SDS011;24794;51.982;5.878;2022-12-22T05:40:11;13.57;;;11.20;;
39032;SDS011;24794;51.982;5.878;2022-12-22T05:41:13;15.35;;;11.75;;
39032;SDS011;24794;51.982;5.878;2022-12-22T05:42:14;14.02;;;11.27;;
39032;SDS011;24794;51.982;5.878;2022-12-22T05:43:34;14.57;;;11.18;;
39032;SDS011;24794;51.982;5.878;2022-12-22T05:44:36;14.82;;;11.25;;
39032;SDS011;24794;51.982;5.878;2022-12-22T05:45:36;14.60;;;11.38;;
39032;SDS011;24794;51.982;5.878;2022-12-22T05:46:37;13.48;;;10.65;;
39032;SDS011;24794;51.982;5.878;2022-12-22T05:47:38;14.43;;;11.10;;
39032;SDS011;24794;51.982;5.878;2022-12-22T05:48:39;15.77;;;10.50;;
39032;SDS011;24794;51.982;5.878;2022-12-22T05:49:39;14.45;;;10.65;;
39032;SDS011;24794;51.982;5.878;2022-12-22T05:50:40;14.27;;;11.57;;
39032;SDS011;24794;51.982;5.878;2022-12-22T05:51:41;17.20;;;12.73;;
39032;SDS011;24794;51.982;5.878;2022-12-22T05:52:41;14.95;;;11.07;;
39032;SDS011;24794;51.982;5.878;2022-12-22T05:53:42;13.55;;;10.50;;
39032;SDS011;24794;51.982;5.878;2022-12-22T05:54:43;13.80;;;11.05;;
39032;SDS011;24794;51.982;5.878;2022-12-22T05:55:43;13.55;;;11.40;;
39032;SDS011;24794;51.982;5.878;2022-12-22T05:56:44;14.27;;;11.23;;
39032;SDS011;24794;51.982;5.878;2022-12-22T05:57:44;14.77;;;11.48;;
39032;SDS011;24794;51.982;5.878;2022-12-22T05:58:45;14.80;;;10.95;;
39032;SDS011;24794;51.982;5.878;2022-12-22T05:59:46;14.63;;;10.93;;
39032;SDS011;24794;51.982;5.878;2022-12-22T06:00:46;15.38;;;12.05;;
39032;SDS011;24794;51.982;5.878;2022-12-22T06:01:47;13.50;;;10.45;;
39032;SDS011;24794;51.982;5.878;2022-12-22T06:02:47;13.73;;;11.35;;
39032;SDS011;24794;51.982;5.878;2022-12-22T06:03:48;13.23;;;10.73;;
39032;SDS011;24794;51.982;5.878;2022-12-22T06:04:48;13.48;;;10.57;;
39032;SDS011;24794;51.982;5.878;2022-12-22T06:05:49;15.32;;;12.50;;
39032;SDS011;24794;51.982;5.878;2022-12-22T06:06:50;15.13;;;11.82;;
39032;SDS011;24794;51.982;5.878;2022-12-22T06:07:50;15.18;;;11.40;;
39032;SDS011;24794;51.982;5.878;2022-12-22T06:08:51;14.80;;;11.52;;
39032;SDS011;24794;51.982;5.878;2022-12-22T06:09:51;15.68;;;12.10;;
39032;SDS011;24794;51.982;5.878;2022-12-22T06:10:53;15.60;;;12.02;;
39032;SDS011;24794;51.982;5.878;2022-12-22T06:11:55;15.63;;;11.82;;
39032;SDS011;24794;51.982;5.878;2022-12-22T06:12:55;17.77;;;12.52;;
39032;SDS011;24794;51.982;5.878;2022-12-22T06:13:56;17.40;;;11.93;;
39032;SDS011;24794;51.982;5.878;2022-12-22T06:14:56;15.02;;;11.38;;
39032;SDS011;24794;51.982;5.878;2022-12-22T06:15:57;16.88;;;12.05;;
39032;SDS011;24794;51.982;5.878;2022-12-22T06:16:58;21.02;;;13.25;;
39032;SDS011;24794;51.982;5.878;2022-12-22T06:17:58;22.02;;;14.73;;
39032;SDS011;24794;51.982;5.878;2022-12-22T06:18:59;22.38;;;15.13;;
39032;SDS011;24794;51.982;5.878;2022-12-22T06:19:59;20.00;;;13.30;;
39032;SDS011;24794;51.982;5.878;2022-12-22T06:21:00;22.33;;;14.15;;
39032;SDS011;24794;51.982;5.878;2022-12-22T06:22:01;22.60;;;14.10;;
39032;SDS011;24794;51.982;5.878;2022-12-22T06:23:01;22.13;;;14.13;;
39032;SDS011;24794;51.982;5.878;2022-12-22T06:24:02;21.50;;;14.25;;
39032;SDS011;24794;51.982;5.878;2022-12-22T06:25:03;22.63;;;14.93;;
39032;SDS011;24794;51.982;5.878;2022-12-22T06:26:04;23.85;;;14.63;;
39032;SDS011;24794;51.982;5.878;2022-12-22T06:27:05;20.83;;;13.95;;
39032;SDS011;24794;51.982;5.878;2022-12-22T06:28:05;21.77;;;14.00;;
39032;SDS011;24794;51.982;5.878;2022-12-22T06:29:06;20.50;;;13.93;;
39032;SDS011;24794;51.982;5.878;2022-12-22T06:30:07;20.25;;;13.50;;
39032;SDS011;24794;51.982;5.878;2022-12-22T06:31:08;22.60;;;15.30;;
39032;SDS011;24794;51.982;5.878;2022-12-22T06:32:08;21.65;;;13.68;;
39032;SDS011;24794;51.982;5.878;2022-12-22T06:33:09;23.45;;;14.73;;
39032;SDS011;24794;51.982;5.878;2022-12-22T06:34:10;20.85;;;13.68;;
39032;SDS011;24794;51.982;5.878;2022-12-22T06:35:11;20.73;;;13.23;;
39032;SDS011;24794;51.982;5.878;2022-12-22T06:36:13;20.85;;;13.10;;
39032;SDS011;24794;51.982;5.878;2022-12-22T06:37:14;22.88;;;14.18;;
39032;SDS011;24794;51.982;5.878;2022-12-22T06:38:14;20.58;;;12.95;;
39032;SDS011;24794;51.982;5.878;2022-12-22T06:39:15;18.08;;;12.27;;
39032;SDS011;24794;51.982;5.878;2022-12-22T06:40:16;20.15;;;12.65;;
39032;SDS011;24794;51.982;5.878;2022-12-22T06:41:17;21.38;;;12.95;;
39032;SDS011;24794;51.982;5.878;2022-12-22T06:42:40;18.95;;;12.40;;
39032;SDS011;24794;51.982;5.878;2022-12-22T06:43:59;21.35;;;12.75;;
39032;SDS011;24794;51.982;5.878;2022-12-22T06:44:59;20.27;;;12.57;;
39032;SDS011;24794;51.982;5.878;2022-12-22T06:46:00;22.58;;;14.05;;
39032;SDS011;24794;51.982;5.878;2022-12-22T06:47:01;20.48;;;13.40;;
39032;SDS011;24794;51.982;5.878;2022-12-22T06:48:01;22.17;;;13.70;;
39032;SDS011;24794;51.982;5.878;2022-12-22T06:49:02;19.60;;;12.65;;
39032;SDS011;24794;51.982;5.878;2022-12-22T06:50:03;21.55;;;13.60;;
39032;SDS011;24794;51.982;5.878;2022-12-22T06:51:04;22.13;;;13.93;;
39032;SDS011;24794;51.982;5.878;2022-12-22T06:52:06;21.98;;;12.88;;
39032;SDS011;24794;51.982;5.878;2022-12-22T06:53:08;19.98;;;12.20;;
39032;SDS011;24794;51.982;5.878;2022-12-22T06:54:09;19.58;;;11.95;;
39032;SDS011;24794;51.982;5.878;2022-12-22T06:55:09;19.10;;;12.88;;
39032;SDS011;24794;51.982;5.878;2022-12-22T06:56:10;18.27;;;11.90;;
39032;SDS011;24794;51.982;5.878;2022-12-22T06:57:11;17.95;;;11.38;;
39032;SDS011;24794;51.982;5.878;2022-12-22T06:58:11;19.25;;;12.48;;
39032;SDS011;24794;51.982;5.878;2022-12-22T06:59:12;18.52;;;12.27;;
39032;SDS011;24794;51.982;5.878;2022-12-22T07:00:13;17.48;;;11.55;;
39032;SDS011;24794;51.982;5.878;2022-12-22T07:01:14;17.90;;;11.70;;
39032;SDS011;24794;51.982;5.878;2022-12-22T07:02:14;18.63;;;12.25;;
39032;SDS011;24794;51.982;5.878;2022-12-22T07:03:15;17.70;;;10.80;;
39032;SDS011;24794;51.982;5.878;2022-12-22T07:04:15;16.10;;;10.48;;
39032;SDS011;24794;51.982;5.878;2022-12-22T07:05:19;17.20;;;10.82;;
39032;SDS011;24794;51.982;5.878;2022-12-22T07:06:20;14.77;;;9.77;;
39032;SDS011;24794;51.982;5.878;2022-12-22T07:07:21;17.75;;;11.05;;
39032;SDS011;24794;51.982;5.878;2022-12-22T07:08:21;16.45;;;10.23;;
39032;SDS011;24794;51.982;5.878;2022-12-22T07:09:22;15.68;;;10.25;;
39032;SDS011;24794;51.982;5.878;2022-12-22T07:10:23;18.25;;;11.27;;
39032;SDS011;24794;51.982;5.878;2022-12-22T07:11:43;14.82;;;10.10;;
39032;SDS011;24794;51.982;5.878;2022-12-22T07:12:44;15.45;;;9.65;;
39032;SDS011;24794;51.982;5.878;2022-12-22T07:13:44;14.40;;;9.23;;
39032;SDS011;24794;51.982;5.878;2022-12-22T07:14:45;13.15;;;9.43;;
39032;SDS011;24794;51.982;5.878;2022-12-22T07:15:46;15.65;;;10.32;;
39032;SDS011;24794;51.982;5.878;2022-12-22T07:16:48;22.73;;;12.70;;